Time;durP1;ratioP1;P1;durP2;ratioP2;P2;SDS_P1;SDS_P2;PMS_P1;PMS_P2;Temp;Humidity;BMP_temperature;BMP_pressure;BME280_temperature;BME280_humidity;BME280_pressure;Samples;Min_cycle;Max_cycle;Signal;HPM_P1;HPM_P2
2023/05/07 00:00:15;;;;;;;4.03;3.63;;;13.80;99.90;;;;;;5054382;28;20185;-35
2023/05/07 00:02:41;;;;;;;4.73;3.40;;;13.80;99.90;;;;;;5051213;28;20202;-36
2023/05/07 00:05:07;;;;;;;4.10;3.60;;;13.80;99.90;;;;;;5049547;28;20185;-35
2023/05/07 00:07:33;;;;;;;4.60;3.27;;;13.80;99.90;;;;;;5049818;28;20197;-36
2023/05/07 00:09:59;;;;;;;4.00;3.60;;;13.80;99.90;;;;;;5032950;28;20174;-36
2023/05/07 00:12:25;;;;;;;5.60;3.43;;;13.70;99.90;;;;;;5049563;28;20262;-35
2023/05/07 00:14:51;;;;;;;4.07;3.60;;;13.70;99.90;;;;;;5033343;28;20220;-35
2023/05/07 00:17:17;;;;;;;5.90;3.80;;;13.70;99.90;;;;;;5032721;28;20182;-36
2023/05/07 00:19:43;;;;;;;3.97;3.63;;;13.70;99.90;;;;;;5050972;28;20292;-36
2023/05/07 00:22:10;;;;;;;5.43;3.80;;;13.60;99.90;;;;;;5033059;28;20182;-37
2023/05/07 00:24:35;;;;;;;6.00;3.47;;;13.50;99.90;;;;;;5032927;28;20206;-35
2023/05/07 00:27:01;;;;;;;4.30;3.60;;;13.50;99.90;;;;;;5050002;28;20244;-35
2023/05/07 00:29:27;;;;;;;4.40;3.27;;;13.40;99.90;;;;;;5049705;28;20178;-35
2023/05/07 00:31:54;;;;;;;4.13;3.50;;;13.40;99.90;;;;;;5032518;28;20218;-36
2023/05/07 00:34:20;;;;;;;4.87;3.30;;;13.50;99.90;;;;;;5050892;28;20249;-39
2023/05/07 00:36:46;;;;;;;4.87;3.80;;;13.50;99.90;;;;;;5041595;28;20615;-35
2023/05/07 00:39:12;;;;;;;5.93;3.23;;;13.50;99.90;;;;;;5029515;28;20531;-35
2023/05/07 00:41:38;;;;;;;5.33;3.80;;;13.50;99.90;;;;;;5063257;28;20178;-35
2023/05/07 00:44:04;;;;;;;5.80;3.60;;;13.50;99.90;;;;;;5032639;28;20209;-35
2023/05/07 00:46:31;;;;;;;5.23;3.50;;;13.40;99.90;;;;;;5048905;28;20184;-38
2023/05/07 00:48:57;;;;;;;5.20;3.77;;;13.40;99.90;;;;;;5049474;28;20209;-35
2023/05/07 00:51:25;;;;;;;4.10;3.67;;;13.40;99.90;;;;;;5049216;28;20193;-35
2023/05/07 00:53:50;;;;;;;4.97;3.83;;;13.40;99.90;;;;;;5049703;28;20213;-35
2023/05/07 00:56:17;;;;;;;5.37;3.77;;;13.40;99.90;;;;;;5050403;28;20189;-36
2023/05/07 00:58:43;;;;;;;6.50;3.90;;;13.40;99.90;;;;;;5048834;28;20209;-35
2023/05/07 01:01:08;;;;;;;6.60;3.97;;;13.30;99.90;;;;;;5054485;28;20181;-35
2023/05/07 01:03:35;;;;;;;4.93;4.07;;;13.30;99.90;;;;;;5032810;28;20265;-37
2023/05/07 01:06:02;;;;;;;6.63;3.83;;;13.20;99.90;;;;;;5049175;28;20248;-35
2023/05/07 01:08:29;;;;;;;7.53;3.97;;;13.20;99.90;;;;;;5032602;28;20268;-35
2023/05/07 01:10:56;;;;;;;4.23;3.80;;;13.20;99.90;;;;;;5033922;28;21275;-35
2023/05/07 01:13:24;;;;;;;4.67;4.00;;;13.10;99.90;;;;;;5017572;28;20251;-35
2023/05/07 01:15:50;;;;;;;5.30;3.67;;;13.20;99.90;;;;;;5046592;28;20189;-35
2023/05/07 01:18:16;;;;;;;4.67;3.70;;;13.20;99.90;;;;;;5048865;28;20185;-35
2023/05/07 01:20:43;;;;;;;5.10;4.33;;;13.20;99.90;;;;;;5048366;28;20238;-36
2023/05/07 01:23:11;;;;;;;6.20;4.03;;;13.20;99.90;;;;;;5048757;28;20287;-36
2023/05/07 01:25:37;;;;;;;4.70;3.90;;;13.30;99.90;;;;;;5032480;28;20196;-35
2023/05/07 01:28:05;;;;;;;5.30;3.87;;;13.20;99.90;;;;;;5049068;28;20205;-35
2023/05/07 01:30:35;;;;;;;5.67;3.80;;;13.20;99.90;;;;;;5028330;28;20245;-35
2023/05/07 01:33:09;;;;;;;4.60;3.83;;;13.30;99.90;;;;;;5040652;28;20205;-35
2023/05/07 01:35:39;;;;;;;7.63;4.10;;;13.30;99.90;;;;;;5049203;28;20178;-35
2023/05/07 01:38:06;;;;;;;5.87;4.10;;;13.30;99.90;;;;;;5033768;28;20449;-35
2023/05/07 01:40:34;;;;;;;5.80;3.93;;;13.30;99.90;;;;;;5051966;28;20265;-35
2023/05/07 01:43:02;;;;;;;4.27;3.80;;;13.30;99.90;;;;;;5036150;28;20213;-35
2023/05/07 01:45:28;;;;;;;5.97;4.37;;;13.30;99.90;;;;;;5052059;28;20177;-35
2023/05/07 01:47:55;;;;;;;5.43;3.80;;;13.20;99.90;;;;;;5052338;28;20196;-35
2023/05/07 01:50:22;;;;;;;5.17;3.50;;;13.20;99.90;;;;;;5052165;28;20178;-35
2023/05/07 01:52:50;;;;;;;4.93;3.70;;;13.20;99.90;;;;;;5035991;28;20197;-35
2023/05/07 01:55:16;;;;;;;4.53;3.50;;;13.10;99.90;;;;;;5052414;28;20178;-35
2023/05/07 01:57:42;;;;;;;4.83;3.43;;;13.10;99.90;;;;;;5035944;28;20216;-35
2023/05/07 02:00:08;;;;;;;3.80;3.40;;;13.00;99.90;;;;;;5035811;28;20181;-35
2023/05/07 02:02:41;;;;;;;4.13;3.73;;;13.00;99.90;;;;;;5052262;28;20213;-35
2023/05/07 02:05:11;;;;;;;5.63;3.40;;;12.80;99.90;;;;;;5052370;28;20181;-35
2023/05/07 02:07:39;;;;;;;4.37;3.40;;;12.70;99.90;;;;;;5052557;28;20188;-35
2023/05/07 02:10:06;;;;;;;4.10;3.60;;;12.60;99.90;;;;;;5035397;28;20173;-37
2023/05/07 02:12:32;;;;;;;4.53;3.90;;;12.60;99.90;;;;;;5053759;28;20200;-35
2023/05/07 02:14:58;;;;;;;5.27;3.73;;;12.50;99.90;;;;;;5035271;28;20209;-35
2023/05/07 02:17:24;;;;;;;5.30;3.40;;;12.50;99.90;;;;;;5052192;28;20207;-35
2023/05/07 02:19:50;;;;;;;4.23;3.80;;;12.50;99.90;;;;;;5034862;28;20304;-36
2023/05/07 02:22:16;;;;;;;4.13;3.40;;;12.50;99.90;;;;;;5034541;28;20185;-35
2023/05/07 02:24:41;;;;;;;6.07;4.00;;;12.60;99.90;;;;;;5051776;28;20196;-35
2023/05/07 02:27:07;;;;;;;5.63;4.10;;;12.60;99.90;;;;;;5056053;28;20184;-35
2023/05/07 02:29:33;;;;;;;6.37;3.93;;;12.50;99.90;;;;;;5063539;28;20220;-35
2023/05/07 02:31:59;;;;;;;4.73;3.50;;;12.50;99.90;;;;;;5035351;28;20190;-35
2023/05/07 02:34:25;;;;;;;4.63;3.63;;;12.50;99.90;;;;;;5035235;28;20205;-34
2023/05/07 02:36:51;;;;;;;4.37;3.80;;;12.50;99.90;;;;;;5051760;28;20188;-35
2023/05/07 02:39:22;;;;;;;3.63;3.33;;;12.40;99.90;;;;;;5036375;28;20188;-35
2023/05/07 02:41:47;;;;;;;4.87;3.50;;;12.40;99.90;;;;;;5046332;28;20649;-35
2023/05/07 02:44:13;;;;;;;4.03;3.60;;;12.30;99.90;;;;;;5034955;28;20220;-35
2023/05/07 02:46:39;;;;;;;4.00;3.60;;;12.20;99.90;;;;;;5030728;28;20189;-35
2023/05/07 02:49:08;;;;;;;3.93;3.60;;;12.20;99.90;;;;;;5042826;28;20215;-34
2023/05/07 02:51:34;;;;;;;6.07;3.70;;;12.30;99.90;;;;;;5052643;28;20196;-34
2023/05/07 02:54:02;;;;;;;3.67;3.27;;;12.30;99.90;;;;;;5054006;28;20266;-34
2023/05/07 02:56:30;;;;;;;4.30;3.20;;;12.30;99.90;;;;;;5056523;28;20216;-35
2023/05/07 02:58:56;;;;;;;4.70;3.60;;;12.30;99.90;;;;;;5034792;28;20218;-35
2023/05/07 03:01:25;;;;;;;4.03;3.63;;;12.30;99.90;;;;;;5034575;28;20182;-35
2023/05/07 03:03:58;;;;;;;5.70;4.10;;;12.30;99.90;;;;;;5050815;28;20235;-37
2023/05/07 03:06:24;;;;;;;5.10;3.70;;;12.20;99.90;;;;;;5050918;28;20208;-36
2023/05/07 03:08:50;;;;;;;4.47;3.57;;;12.20;99.90;;;;;;5035007;28;20267;-36
2023/05/07 03:11:17;;;;;;;5.07;3.70;;;12.20;99.90;;;;;;5034345;28;20238;-35
2023/05/07 03:13:42;;;;;;;4.17;3.70;;;12.30;99.90;;;;;;5050701;28;20225;-37
2023/05/07 03:16:08;;;;;;;4.27;3.40;;;12.30;99.90;;;;;;5050982;28;20180;-36
2023/05/07 03:18:34;;;;;;;4.77;3.27;;;12.30;99.90;;;;;;5051123;28;20184;-37
2023/05/07 03:21:00;;;;;;;4.90;3.50;;;12.30;99.90;;;;;;5050440;28;20196;-35
2023/05/07 03:23:26;;;;;;;3.37;2.97;;;12.30;99.90;;;;;;5034338;28;20209;-36
2023/05/07 03:25:52;;;;;;;3.60;3.30;;;12.20;99.90;;;;;;5051834;28;20267;-36
2023/05/07 03:28:18;;;;;;;5.07;3.60;;;12.10;99.90;;;;;;5058102;28;20179;-37
2023/05/07 03:30:50;;;;;;;5.83;2.93;;;12.00;99.90;;;;;;5042976;28;20192;-35
2023/05/07 03:33:16;;;;;;;4.20;3.30;;;11.90;99.90;;;;;;5050434;28;20214;-36
2023/05/07 03:35:42;;;;;;;4.73;3.40;;;11.80;99.90;;;;;;5034490;28;20175;-35
2023/05/07 03:38:09;;;;;;;3.87;3.53;;;11.80;99.90;;;;;;5050679;28;20491;-36
2023/05/07 03:40:37;;;;;;;5.40;3.50;;;11.80;99.90;;;;;;5049354;28;20200;-39
2023/05/07 03:43:04;;;;;;;4.77;3.20;;;11.80;99.90;;;;;;5033040;28;20247;-36
2023/05/07 03:45:31;;;;;;;5.03;3.53;;;11.80;99.90;;;;;;5034779;28;20342;-43
2023/05/07 03:48:08;;;;;;;3.97;3.57;;;11.70;99.90;;;;;;5050104;28;20187;-38
2023/05/07 03:50:34;;;;;;;4.43;3.37;;;11.80;99.90;;;;;;5050131;28;20593;-39
2023/05/07 03:52:59;;;;;;;5.73;3.63;;;11.80;99.90;;;;;;5048756;28;20207;-38
2023/05/07 03:55:27;;;;;;;3.70;3.30;;;11.90;99.90;;;;;;5050236;28;20203;-38
2023/05/07 03:57:57;;;;;;;7.00;3.53;;;11.90;99.90;;;;;;5050634;28;20198;-38
2023/05/07 04:00:25;;;;;;;4.07;3.33;;;11.90;99.90;;;;;;5049483;28;20176;-40
2023/05/07 04:02:50;;;;;;;4.00;3.70;;;11.90;99.90;;;;;;5050681;28;20215;-43
2023/05/07 04:05:23;;;;;;;3.93;3.47;;;11.80;99.90;;;;;;5050115;28;20226;-38
2023/05/07 04:07:52;;;;;;;5.50;3.40;;;11.80;99.90;;;;;;5034013;28;20211;-38
2023/05/07 04:10:24;;;;;;;5.80;3.13;;;11.80;99.90;;;;;;5033777;28;20271;-38
2023/05/07 04:12:54;;;;;;;5.73;3.20;;;11.80;99.90;;;;;;5051232;28;20250;-38
2023/05/07 04:15:21;;;;;;;5.53;3.73;;;11.90;99.90;;;;;;5037388;28;20212;-37
2023/05/07 04:17:48;;;;;;;6.43;3.40;;;11.90;99.90;;;;;;5058127;28;20187;-38
2023/05/07 04:20:17;;;;;;;5.23;3.43;;;12.00;99.90;;;;;;5032456;28;20184;-40
2023/05/07 04:22:47;;;;;;;4.43;3.90;;;12.00;99.90;;;;;;5033569;28;20200;-39
2023/05/07 04:25:15;;;;;;;4.67;3.50;;;11.90;99.90;;;;;;5025968;28;20196;-40
2023/05/07 04:27:41;;;;;;;4.33;3.33;;;12.00;99.90;;;;;;5049957;28;20212;-39
2023/05/07 04:30:07;;;;;;;3.80;3.40;;;11.90;99.90;;;;;;5050403;28;20171;-38
2023/05/07 04:32:38;;;;;;;4.33;3.63;;;11.90;99.90;;;;;;5048460;28;20288;-37
2023/05/07 04:35:05;;;;;;;4.47;3.37;;;11.90;99.90;;;;;;5052933;28;20219;-43
2023/05/07 04:37:35;;;;;;;3.97;3.60;;;11.90;99.90;;;;;;5049217;28;20286;-37
2023/05/07 04:40:02;;;;;;;5.90;3.93;;;11.90;99.90;;;;;;5048099;28;20190;-37
2023/05/07 04:42:28;;;;;;;5.57;3.27;;;11.90;99.90;;;;;;5032869;28;20214;-38
2023/05/07 04:44:55;;;;;;;5.73;3.67;;;12.00;99.90;;;;;;5033031;28;20187;-37
2023/05/07 04:47:22;;;;;;;4.30;3.30;;;12.00;99.90;;;;;;5032821;28;20184;-38
2023/05/07 04:49:48;;;;;;;5.30;3.60;;;12.10;99.90;;;;;;5048824;28;20184;-38
2023/05/07 04:52:15;;;;;;;5.50;3.23;;;12.10;99.90;;;;;;5031714;28;20206;-38
2023/05/07 04:54:41;;;;;;;5.73;3.40;;;12.10;99.90;;;;;;5049198;28;20207;-37
2023/05/07 04:57:08;;;;;;;3.73;3.33;;;12.10;99.90;;;;;;5056873;28;20190;-39
2023/05/07 04:59:34;;;;;;;4.77;3.40;;;12.20;99.90;;;;;;5048830;28;20206;-43
2023/05/07 05:02:01;;;;;;;5.50;3.60;;;12.20;99.90;;;;;;5047972;28;20179;-39
2023/05/07 05:04:27;;;;;;;3.30;3.00;;;12.30;99.90;;;;;;5031445;28;20238;-37
2023/05/07 05:06:53;;;;;;;3.50;3.20;;;12.30;99.90;;;;;;5048818;28;20181;-37
2023/05/07 05:09:20;;;;;;;3.50;3.20;;;12.40;99.90;;;;;;5048730;28;20214;-38
2023/05/07 05:11:48;;;;;;;3.57;3.00;;;12.40;99.90;;;;;;5048215;28;20223;-40
2023/05/07 05:14:14;;;;;;;3.67;3.30;;;12.50;99.90;;;;;;5035478;28;20219;-39
2023/05/07 05:16:40;;;;;;;3.87;3.50;;;12.60;99.90;;;;;;5036674;28;20211;-38
2023/05/07 05:19:06;;;;;;;3.47;3.17;;;12.70;99.90;;;;;;5036067;28;20177;-37
2023/05/07 05:21:35;;;;;;;3.53;3.23;;;12.70;99.90;;;;;;5052571;28;20177;-36
2023/05/07 05:24:06;;;;;;;3.93;3.43;;;12.80;99.90;;;;;;5052708;28;20243;-40
2023/05/07 05:26:32;;;;;;;5.47;3.70;;;12.90;99.90;;;;;;5036173;28;20185;-40
2023/05/07 05:28:58;;;;;;;3.87;3.20;;;13.00;99.90;;;;;;5055545;28;20205;-35
2023/05/07 05:31:26;;;;;;;4.10;3.37;;;13.10;99.90;;;;;;5036030;28;20178;-35
2023/05/07 05:33:52;;;;;;;4.83;3.37;;;13.20;99.90;;;;;;5032753;28;20228;-36
2023/05/07 05:36:18;;;;;;;3.90;3.37;;;13.30;99.90;;;;;;5053743;28;20269;-37
2023/05/07 05:38:47;;;;;;;3.73;3.37;;;13.40;99.90;;;;;;5034772;28;20181;-35
2023/05/07 05:41:13;;;;;;;3.47;3.00;;;13.50;99.90;;;;;;5035931;28;20177;-35
2023/05/07 05:43:39;;;;;;;3.37;3.07;;;13.60;99.90;;;;;;5037464;28;20706;-36
2023/05/07 05:46:06;;;;;;;3.00;2.80;;;13.60;99.90;;;;;;5034493;28;20185;-36
2023/05/07 05:48:32;;;;;;;4.37;3.43;;;13.70;99.90;;;;;;5052145;28;20190;-35
2023/05/07 05:51:01;;;;;;;5.93;3.37;;;13.70;99.90;;;;;;5050841;28;20185;-37
2023/05/07 05:53:27;;;;;;;3.50;3.10;;;13.70;99.90;;;;;;5042080;28;20276;-35
2023/05/07 05:55:53;;;;;;;3.83;3.17;;;13.70;99.90;;;;;;5035735;28;20184;-35
2023/05/07 05:58:20;;;;;;;3.30;3.10;;;13.80;99.90;;;;;;5035794;28;20265;-35
2023/05/07 06:00:53;;;;;;;5.83;3.43;;;13.90;99.90;;;;;;5031812;28;20175;-36
2023/05/07 06:03:20;;;;;;;3.80;3.20;;;14.10;99.90;;;;;;5051795;28;20223;-36
2023/05/07 06:05:47;;;;;;;4.87;3.17;;;14.20;99.90;;;;;;5041281;28;20187;-36
2023/05/07 06:08:14;;;;;;;6.07;3.60;;;14.20;99.90;;;;;;5061080;28;20186;-35
2023/05/07 06:10:40;;;;;;;3.90;3.60;;;14.30;99.90;;;;;;5035211;28;20720;-35
2023/05/07 06:13:07;;;;;;;4.33;3.50;;;14.30;99.90;;;;;;5051839;28;20249;-35
2023/05/07 06:15:36;;;;;;;3.77;3.40;;;14.40;99.90;;;;;;5038998;28;20186;-35
2023/05/07 06:18:07;;;;;;;4.53;3.53;;;14.50;99.90;;;;;;5053142;28;20182;-35
2023/05/07 06:20:33;;;;;;;3.93;3.53;;;14.70;99.90;;;;;;5035580;28;20267;-36
2023/05/07 06:23:01;;;;;;;4.27;3.13;;;14.70;99.90;;;;;;5034933;28;20229;-39
2023/05/07 06:25:27;;;;;;;5.20;3.87;;;14.80;99.90;;;;;;5035118;28;20182;-36
2023/05/07 06:27:53;;;;;;;4.63;3.40;;;14.80;99.90;;;;;;5052671;28;20247;-35
2023/05/07 06:30:19;;;;;;;4.80;3.50;;;14.90;99.90;;;;;;5042549;28;20174;-35
2023/05/07 06:32:45;;;;;;;3.90;3.30;;;15.00;99.90;;;;;;5015477;28;20229;-36
2023/05/07 06:35:12;;;;;;;4.87;3.67;;;15.00;99.90;;;;;;5050260;28;20181;-36
2023/05/07 06:37:42;;;;;;;4.47;3.33;;;15.10;99.90;;;;;;5060996;28;20190;-38
2023/05/07 06:40:13;;;;;;;5.17;3.73;;;15.20;99.90;;;;;;5057971;28;20263;-36
2023/05/07 06:42:40;;;;;;;4.37;3.17;;;15.20;99.90;;;;;;5035746;28;20207;-35
2023/05/07 06:45:38;;;;;;;7.00;3.80;;;15.30;99.90;;;;;;5044022;28;20257;-36
2023/05/07 06:48:06;;;;;;;3.77;3.47;;;15.30;99.90;;;;;;5050408;28;20189;-35
2023/05/07 06:50:38;;;;;;;5.50;3.27;;;15.30;99.90;;;;;;5034923;28;20181;-35
2023/05/07 06:53:04;;;;;;;4.47;3.20;;;15.30;99.90;;;;;;5033913;28;20194;-36
2023/05/07 06:55:30;;;;;;;3.77;3.33;;;15.30;99.90;;;;;;5056041;28;20177;-38
2023/05/07 06:58:00;;;;;;;4.30;3.70;;;15.30;99.90;;;;;;5047902;28;20247;-36
2023/05/07 07:00:27;;;;;;;4.50;3.53;;;15.40;99.90;;;;;;5051763;28;20182;-36
2023/05/07 07:02:55;;;;;;;4.87;3.50;;;15.50;99.90;;;;;;5033759;28;20214;-39
2023/05/07 07:05:24;;;;;;;3.63;3.33;;;15.70;99.90;;;;;;5050937;28;20209;-37
2023/05/07 07:07:52;;;;;;;5.30;3.77;;;15.80;99.90;;;;;;5051689;28;20231;-37
2023/05/07 07:10:22;;;;;;;5.20;3.60;;;15.90;99.90;;;;;;5036851;28;20174;-36
2023/05/07 07:12:50;;;;;;;6.73;3.77;;;16.00;99.90;;;;;;5035350;28;20232;-35
2023/05/07 07:15:16;;;;;;;4.27;3.80;;;16.10;99.90;;;;;;5052977;28;20170;-35
2023/05/07 07:17:43;;;;;;;4.10;3.40;;;16.40;99.90;;;;;;5035884;28;20195;-36
2023/05/07 07:20:10;;;;;;;4.07;3.60;;;16.50;99.90;;;;;;5037006;28;20177;-36
2023/05/07 07:22:36;;;;;;;4.00;3.60;;;16.70;99.90;;;;;;5035589;28;20206;-38
2023/05/07 07:25:02;;;;;;;3.77;3.43;;;16.90;99.90;;;;;;5051933;28;20185;-35
2023/05/07 07:27:28;;;;;;;3.37;3.07;;;17.10;99.90;;;;;;5051345;28;20190;-36
2023/05/07 07:29:54;;;;;;;4.07;3.63;;;17.30;99.90;;;;;;5051045;28;20186;-39
2023/05/07 07:32:20;;;;;;;5.53;3.97;;;17.40;99.90;;;;;;5051243;28;20190;-38
2023/05/07 07:34:46;;;;;;;4.30;3.90;;;17.40;99.90;;;;;;5049910;28;20212;-37
2023/05/07 07:37:19;;;;;;;4.43;3.45;;;17.40;99.90;;;;;;5025036;28;20185;-35
2023/05/07 07:39:45;;;;;;;4.30;3.58;;;17.40;99.90;;;;;;5052229;28;20227;-38
2023/05/07 07:42:12;;;;;;;4.05;3.60;;;17.30;99.90;;;;;;5038564;28;20237;-37
2023/05/07 07:44:39;;;;;;;4.95;3.72;;;17.30;99.90;;;;;;5042622;28;20208;-36
2023/05/07 07:47:07;;;;;;;4.07;3.35;;;17.30;99.90;;;;;;5038167;28;20219;-36
2023/05/07 07:49:34;;;;;;;3.33;3.03;;;17.30;99.90;;;;;;5033265;28;20178;-39
2023/05/07 07:52:04;;;;;;;3.90;3.22;;;17.30;99.90;;;;;;5049937;28;20327;-36
2023/05/07 07:54:33;;;;;;;3.92;3.30;;;17.40;99.90;;;;;;5050333;28;20218;-37
2023/05/07 07:56:59;;;;;;;5.13;3.88;;;17.40;99.90;;;;;;5049564;28;20308;-35
2023/05/07 07:59:26;;;;;;;5.07;3.83;;;17.40;99.90;;;;;;5033138;28;20181;-37
2023/05/07 08:01:55;;;;;;;4.22;3.42;;;17.40;99.90;;;;;;5049829;28;20174;-38
2023/05/07 08:04:22;;;;;;;6.65;3.58;;;17.40;99.90;;;;;;5050112;28;20205;-37
2023/05/07 08:06:49;;;;;;;6.70;4.00;;;17.40;99.90;;;;;;5059658;28;20190;-36
2023/05/07 08:09:15;;;;;;;4.18;3.78;;;17.20;99.90;;;;;;5034075;28;20343;-37
2023/05/07 08:11:41;;;;;;;4.00;3.70;;;17.20;99.90;;;;;;5033296;28;20190;-37
2023/05/07 08:14:08;;;;;;;5.70;3.60;;;17.30;99.90;;;;;;5032080;28;20226;-36
2023/05/07 08:16:34;;;;;;;3.70;3.40;;;17.30;99.90;;;;;;5039511;28;20194;-37
2023/05/07 08:19:01;;;;;;;5.57;3.80;;;17.50;99.90;;;;;;5047691;28;20186;-37
2023/05/07 08:21:27;;;;;;;4.40;4.00;;;17.60;99.90;;;;;;5048489;28;20177;-38
2023/05/07 08:23:53;;;;;;;3.85;3.55;;;17.60;99.90;;;;;;5050021;28;20296;-36
2023/05/07 08:26:20;;;;;;;4.97;4.13;;;17.80;99.90;;;;;;5065919;28;20178;-36
2023/05/07 08:28:46;;;;;;;7.35;3.53;;;18.00;99.90;;;;;;5036762;28;20181;-37
2023/05/07 08:31:12;;;;;;;4.75;3.58;;;18.20;99.90;;;;;;5052901;28;20186;-37
2023/05/07 08:33:40;;;;;;;4.05;3.65;;;18.50;99.90;;;;;;5051609;28;20205;-37
2023/05/07 08:36:06;;;;;;;4.32;3.92;;;18.80;99.90;;;;;;5033410;28;20205;-36
2023/05/07 08:38:32;;;;;;;3.10;2.90;;;19.00;99.90;;;;;;5033546;28;20181;-37
2023/05/07 08:40:58;;;;;;;5.68;4.30;;;19.20;99.90;;;;;;5031943;28;20182;-37
2023/05/07 08:43:28;;;;;;;4.20;3.40;;;19.30;99.90;;;;;;5058424;28;20213;-37
2023/05/07 08:45:57;;;;;;;4.95;3.60;;;19.40;99.90;;;;;;5053287;28;20194;-36
2023/05/07 08:48:29;;;;;;;4.15;3.50;;;19.50;99.90;;;;;;5044128;28;20244;-37
2023/05/07 08:51:05;;;;;;;4.97;4.57;;;19.70;99.90;;;;;;5035101;28;20182;-36
2023/05/07 08:53:34;;;;;;;4.88;3.20;;;19.80;99.90;;;;;;5032540;28;20232;-38
2023/05/07 08:56:00;;;;;;;4.15;3.35;;;20.00;99.90;;;;;;5040691;28;20181;-37
2023/05/07 08:58:29;;;;;;;3.72;3.20;;;20.30;99.90;;;;;;5025066;28;20182;-36
2023/05/07 09:00:56;;;;;;;3.35;2.90;;;20.60;99.90;;;;;;5037797;28;20269;-36
2023/05/07 09:03:23;;;;;;;4.30;3.00;;;20.80;99.90;;;;;;5029293;28;20206;-37
2023/05/07 09:05:51;;;;;;;3.78;3.38;;;20.90;99.90;;;;;;5051653;28;20182;-38
2023/05/07 09:08:27;;;;;;;6.18;3.35;;;21.00;99.90;;;;;;5050831;28;20181;-37
2023/05/07 09:10:55;;;;;;;4.55;3.10;;;21.10;99.90;;;;;;5047031;28;20239;-39
2023/05/07 09:13:22;;;;;;;3.50;2.65;;;21.40;99.90;;;;;;5034990;28;20464;-37
2023/05/07 09:15:49;;;;;;;3.08;2.67;;;21.60;99.90;;;;;;5035951;28;20265;-39
2023/05/07 09:18:16;;;;;;;2.95;2.65;;;21.70;99.90;;;;;;5034292;28;20182;-37
2023/05/07 09:20:42;;;;;;;2.67;2.47;;;22.00;99.90;;;;;;5050484;28;20261;-39
2023/05/07 09:23:09;;;;;;;3.90;2.58;;;22.20;99.90;;;;;;5034523;28;20259;-39
2023/05/07 09:25:36;;;;;;;3.20;2.78;;;22.30;99.90;;;;;;5051799;28;20188;-39
2023/05/07 09:28:10;;;;;;;4.75;2.53;;;22.40;99.90;;;;;;5060263;28;20250;-38
2023/05/07 09:30:36;;;;;;;3.00;2.80;;;22.50;99.90;;;;;;5034401;28;20226;-39
2023/05/07 09:33:05;;;;;;;2.50;2.30;;;22.70;99.90;;;;;;5034567;28;20194;-38
2023/05/07 09:35:34;;;;;;;4.85;2.70;;;22.90;99.90;;;;;;5034107;28;20644;-37
2023/05/07 09:38:07;;;;;;;2.80;2.50;;;22.90;99.90;;;;;;5049206;28;20650;-36
2023/05/07 09:40:35;;;;;;;2.42;2.13;;;22.90;99.90;;;;;;5050404;28;20319;-36
2023/05/07 09:43:14;;;;;;;2.80;2.03;;;23.00;99.90;;;;;;5033689;28;20213;-37
2023/05/07 09:45:53;;;;;;;2.97;2.45;;;23.20;99.90;;;;;;5041158;28;20171;-41
2023/05/07 09:49:13;;;;;;;2.92;2.30;;;23.40;99.90;;;;;;5047236;28;20232;-40
2023/05/07 09:52:18;;;;;;;3.03;2.33;;;23.40;99.90;;;;;;5039852;28;20178;-39
2023/05/07 09:54:54;;;;;;;2.85;2.22;;;23.40;99.90;;;;;;5046784;28;20217;-39
2023/05/07 09:57:26;;;;;;;3.22;2.15;;;23.60;99.90;;;;;;5032884;28;20173;-39
2023/05/07 10:00:04;;;;;;;3.10;2.40;;;23.70;99.90;;;;;;5036235;28;20177;-38
2023/05/07 10:03:10;;;;;;;2.30;2.10;;;23.90;99.90;;;;;;5053807;28;20194;-39
2023/05/07 10:05:59;;;;;;;2.92;2.30;;;24.10;99.90;;;;;;5052610;28;20193;-42
2023/05/07 10:08:28;;;;;;;2.80;2.50;;;24.10;99.90;;;;;;5063067;28;20182;-38
2023/05/07 10:10:59;;;;;;;2.80;2.13;;;24.10;99.90;;;;;;5047920;28;20186;-38
2023/05/07 10:13:27;;;;;;;2.38;2.17;;;24.10;99.90;;;;;;5051432;28;20210;-40
2023/05/07 10:15:57;;;;;;;2.78;2.03;;;24.30;99.90;;;;;;5035206;28;20174;-38
2023/05/07 10:18:29;;;;;;;3.70;2.38;;;24.30;99.90;;;;;;5054888;28;20272;-38
2023/05/07 10:21:07;;;;;;;2.42;2.22;;;24.50;99.90;;;;;;5058447;28;20173;-40
2023/05/07 10:23:35;;;;;;;3.72;2.22;;;24.50;99.90;;;;;;5048246;28;20200;-38
2023/05/07 10:26:06;;;;;;;2.58;1.92;;;24.30;99.90;;;;;;5050878;28;20174;-38
2023/05/07 10:28:39;;;;;;;2.10;1.90;;;24.50;99.90;;;;;;5051783;28;20268;-39
2023/05/07 10:31:42;;;;;;;2.40;2.20;;;24.60;99.90;;;;;;5030825;28;20185;-39
2023/05/07 10:34:13;;;;;;;2.78;2.38;;;24.80;99.90;;;;;;5053112;28;20201;-39
2023/05/07 10:36:40;;;;;;;3.58;2.00;;;24.40;99.90;;;;;;5034774;28;20185;-42
2023/05/07 10:39:06;;;;;;;3.35;2.00;;;24.40;99.90;;;;;;5052109;28;20182;-38
2023/05/07 10:41:33;;;;;;;2.55;2.28;;;24.30;99.90;;;;;;5032947;28;20177;-39
2023/05/07 10:44:01;;;;;;;2.30;2.10;;;23.90;99.90;;;;;;5032538;28;20218;-39
2023/05/07 10:46:32;;;;;;;4.97;2.38;;;24.20;99.90;;;;;;5058492;28;20181;-42
2023/05/07 10:49:08;;;;;;;2.88;2.65;;;24.50;99.90;;;;;;5043454;28;20177;-39
2023/05/07 10:52:14;;;;;;;2.45;2.25;;;24.60;99.90;;;;;;5052142;28;20209;-41
2023/05/07 10:54:44;;;;;;;3.35;2.58;;;24.70;99.90;;;;;;5050863;28;20194;-38
2023/05/07 10:57:36;;;;;;;3.05;2.47;;;24.40;99.90;;;;;;5052275;28;20273;-41
2023/05/07 11:00:23;;;;;;;2.75;2.55;;;24.50;99.90;;;;;;5031083;28;20186;-40
2023/05/07 11:03:01;;;;;;;2.55;2.35;;;24.90;99.90;;;;;;5048544;28;20194;-39
2023/05/07 11:05:39;;;;;;;3.58;2.50;;;25.20;99.90;;;;;;5035659;28;20276;-39
2023/05/07 11:08:19;;;;;;;2.58;2.38;;;25.10;99.90;;;;;;5052965;28;20174;-39
2023/05/07 11:10:56;;;;;;;2.60;2.40;;;25.40;99.90;;;;;;5052994;28;20190;-42
2023/05/07 11:13:47;;;;;;;2.50;2.17;;;25.40;99.90;;;;;;5059503;28;20266;-38
2023/05/07 11:16:46;;;;;;;3.83;2.30;;;25.60;99.90;;;;;;5041033;28;20207;-39
2023/05/07 11:19:50;;;;;;;2.60;2.40;;;25.40;99.90;;;;;;5060033;28;20234;-40
2023/05/07 11:22:39;;;;;;;3.22;2.20;;;25.40;99.90;;;;;;5055196;28;20189;-39
2023/05/07 11:25:21;;;;;;;3.35;2.10;;;25.30;99.90;;;;;;5043466;28;20182;-38
2023/05/07 11:27:54;;;;;;;4.22;2.08;;;25.30;99.90;;;;;;5042734;28;20276;-36
2023/05/07 11:30:20;;;;;;;4.15;2.20;;;25.10;99.90;;;;;;5054258;28;20209;-38
2023/05/07 11:32:48;;;;;;;2.55;2.08;;;24.80;99.90;;;;;;5046830;28;20261;-40
2023/05/07 11:35:16;;;;;;;2.42;1.85;;;24.30;99.90;;;;;;5047567;28;20205;-37
2023/05/07 11:37:48;;;;;;;3.47;2.15;;;24.20;99.90;;;;;;5033628;28;20174;-36
2023/05/07 11:40:15;;;;;;;4.03;2.20;;;24.10;99.90;;;;;;5042190;28;20216;-37
2023/05/07 11:42:42;;;;;;;2.35;2.15;;;23.90;99.90;;;;;;5051092;28;20233;-37
2023/05/07 11:45:09;;;;;;;2.00;1.90;;;23.70;99.90;;;;;;5045704;28;20201;-36
2023/05/07 11:47:35;;;;;;;2.70;2.17;;;23.70;99.90;;;;;;5055970;28;20204;-37
2023/05/07 11:50:07;;;;;;;3.00;2.30;;;23.60;99.90;;;;;;5039024;28;20185;-37
2023/05/07 11:52:35;;;;;;;4.63;2.20;;;23.40;99.90;;;;;;5050349;28;20289;-37
2023/05/07 11:55:04;;;;;;;5.40;2.50;;;23.30;99.90;;;;;;5050341;28;20216;-36
2023/05/07 11:57:30;;;;;;;3.47;2.42;;;23.10;99.90;;;;;;5033338;28;20261;-39
2023/05/07 12:00:01;;;;;;;3.35;2.53;;;22.80;99.90;;;;;;5032246;28;20190;-36
2023/05/07 12:02:28;;;;;;;4.95;2.45;;;22.50;99.90;;;;;;5049791;28;20278;-37
2023/05/07 12:04:54;;;;;;;3.15;2.72;;;22.20;99.90;;;;;;5036575;28;20186;-35
2023/05/07 12:07:20;;;;;;;2.58;2.30;;;21.90;99.90;;;;;;5033544;28;20193;-37
2023/05/07 12:09:47;;;;;;;2.60;2.40;;;21.70;99.90;;;;;;5049903;28;20188;-38
2023/05/07 12:12:15;;;;;;;3.30;2.25;;;21.60;99.90;;;;;;5032659;28;20208;-36
2023/05/07 12:14:43;;;;;;;2.60;2.40;;;21.50;99.90;;;;;;5045109;28;20205;-37
2023/05/07 12:17:10;;;;;;;3.30;2.38;;;21.30;99.90;;;;;;5031769;28;20190;-40
2023/05/07 12:19:37;;;;;;;4.18;2.33;;;21.20;99.90;;;;;;5033484;28;20178;-39
2023/05/07 12:22:05;;;;;;;3.17;2.60;;;21.10;99.90;;;;;;5049316;28;20197;-38
2023/05/07 12:24:48;;;;;;;3.22;2.40;;;21.10;99.90;;;;;;5051227;28;20202;-38
2023/05/07 12:27:16;;;;;;;4.97;2.38;;;21.00;99.90;;;;;;5057154;28;20189;-38
2023/05/07 12:29:49;;;;;;;2.60;2.40;;;20.90;99.90;;;;;;5049376;28;20277;-39
2023/05/07 12:32:20;;;;;;;3.00;2.33;;;20.80;99.90;;;;;;5049342;28;20181;-38
2023/05/07 12:34:52;;;;;;;2.72;2.10;;;20.70;99.90;;;;;;5049789;28;20206;-39
2023/05/07 12:37:25;;;;;;;2.63;2.20;;;20.60;99.90;;;;;;5049827;28;20174;-38
2023/05/07 12:40:11;;;;;;;3.92;1.95;;;20.60;99.90;;;;;;5049326;28;20300;-39
2023/05/07 12:42:38;;;;;;;3.75;2.25;;;20.50;99.90;;;;;;5042787;28;20206;-38
2023/05/07 12:45:15;;;;;;;4.22;2.47;;;20.50;99.90;;;;;;5040941;28;20203;-40
2023/05/07 12:47:45;;;;;;;3.05;2.40;;;20.20;99.90;;;;;;5049751;28;20199;-38
2023/05/07 12:50:12;;;;;;;4.82;2.30;;;19.80;99.90;;;;;;5032504;28;20281;-43
2023/05/07 12:52:38;;;;;;;3.55;2.35;;;19.60;99.90;;;;;;5029750;28;20223;-37
2023/05/07 12:55:08;;;;;;;4.03;2.45;;;19.40;99.90;;;;;;5049222;28;20206;-38
2023/05/07 12:57:52;;;;;;;3.03;2.72;;;19.10;99.90;;;;;;5049269;28;20201;-38